createdAt,value
2019-05-14T00:01:11.846Z,10.50
2019-05-14T00:03:42.282Z,10.40
2019-05-14T00:06:11.652Z,10.40
2019-05-14T00:08:41.863Z,10.40
2019-05-14T00:11:13.047Z,10.40
2019-05-14T00:13:42.487Z,10.30
2019-05-14T00:16:11.939Z,10.30
2019-05-14T00:18:42.006Z,10.30
2019-05-14T00:21:12.252Z,10.30
2019-05-14T00:23:42.171Z,10.30
2019-05-14T00:26:12.175Z,10.30
2019-05-14T00:28:42.225Z,10.30
2019-05-14T00:31:12.171Z,10.20
2019-05-14T00:33:42.058Z,10.20
2019-05-14T00:36:11.483Z,10.20
2019-05-14T00:38:41.978Z,10.10
2019-05-14T00:41:11.416Z,10.10
2019-05-14T00:43:41.591Z,10.10
2019-05-14T00:46:11.823Z,10.10
2019-05-14T00:48:42.248Z,10.10
2019-05-14T00:51:14.318Z,10.10
2019-05-14T00:53:43.642Z,10.10
2019-05-14T00:56:12.846Z,10.00
2019-05-14T00:58:42.048Z,10.00
2019-05-14T01:01:11.834Z,10.00
2019-05-14T01:03:41.610Z,10.00
2019-05-14T01:06:11.477Z,9.90
2019-05-14T01:08:41.559Z,9.90
2019-05-14T01:11:11.823Z,9.90
2019-05-14T01:13:41.792Z,9.90
2019-05-14T01:16:11.999Z,9.80
2019-05-14T01:18:41.618Z,9.80
2019-05-14T01:21:11.731Z,9.70
2019-05-14T01:23:41.607Z,9.70
2019-05-14T01:26:11.472Z,9.60
2019-05-14T01:28:41.541Z,9.60
2019-05-14T01:31:11.749Z,9.60
2019-05-14T01:33:41.927Z,9.60
2019-05-14T01:36:12.355Z,9.60
2019-05-14T01:38:41.956Z,9.50
2019-05-14T01:41:11.826Z,9.50
2019-05-14T01:43:41.933Z,9.50
2019-05-14T01:46:12.431Z,9.50
2019-05-14T01:48:41.865Z,9.40
2019-05-14T01:51:11.920Z,9.40
2019-05-14T01:53:41.671Z,9.40
2019-05-14T01:56:11.990Z,9.40
2019-05-14T01:58:41.836Z,9.40
2019-05-14T02:01:12.022Z,9.30
2019-05-14T02:03:41.847Z,9.30
2019-05-14T02:06:12.467Z,9.30
2019-05-14T02:08:41.689Z,9.20
2019-05-14T02:11:12.054Z,9.20
2019-05-14T02:13:41.566Z,9.10
2019-05-14T02:16:13.069Z,9.10
2019-05-14T02:18:42.540Z,9.10
2019-05-14T02:21:11.940Z,9.10
2019-05-14T02:23:42.019Z,9.10
2019-05-14T02:26:11.555Z,9.00
2019-05-14T02:28:42.128Z,9.00
2019-05-14T02:31:11.559Z,9.00
2019-05-14T02:33:40.936Z,9.00
2019-05-14T02:36:10.570Z,9.00
2019-05-14T02:38:39.939Z,9.00
2019-05-14T02:41:09.961Z,9.00
2019-05-14T02:43:40.895Z,8.90
2019-05-14T02:46:16.597Z,8.90
2019-05-14T02:48:41.440Z,8.90
2019-05-14T02:51:10.776Z,8.90
2019-05-14T02:53:40.137Z,8.90
2019-05-14T02:56:10.374Z,8.90
2019-05-14T02:58:40.324Z,8.90
2019-05-14T03:01:09.839Z,8.80
2019-05-14T03:03:40.098Z,8.90
2019-05-14T03:06:09.917Z,8.80
2019-05-14T03:08:39.315Z,8.80
2019-05-14T03:11:09.498Z,8.80
2019-05-14T03:13:39.957Z,8.80
2019-05-14T03:16:22.244Z,8.80
2019-05-14T03:18:40.949Z,8.80
2019-05-14T03:21:10.352Z,8.80
2019-05-14T03:23:40.111Z,8.80
2019-05-14T03:26:09.790Z,8.80
2019-05-14T03:28:40.141Z,8.70
2019-05-14T03:31:12.731Z,8.70
2019-05-14T03:33:43.839Z,8.70
2019-05-14T03:36:17.850Z,8.70
2019-05-14T03:38:42.520Z,8.70
2019-05-14T03:41:14.264Z,8.70
2019-05-14T03:43:49.171Z,8.60
2019-05-14T03:46:20.298Z,8.60
2019-05-14T03:48:49.254Z,8.60
2019-05-14T03:51:20.364Z,8.60
2019-05-14T03:54:01.250Z,8.60
2019-05-14T03:56:21.188Z,8.50
2019-05-14T03:58:50.504Z,8.50
2019-05-14T04:01:20.360Z,8.50
2019-05-14T04:03:50.517Z,8.50
2019-05-14T04:06:21.468Z,8.50
2019-05-14T04:08:51.878Z,8.50
2019-05-14T04:11:22.221Z,8.50
2019-05-14T04:13:54.716Z,8.50
2019-05-14T04:16:25.235Z,8.50
2019-05-14T04:18:59.508Z,8.50
2019-05-14T04:21:29.992Z,8.40
2019-05-14T04:24:00.799Z,8.40
2019-05-14T04:26:30.989Z,8.40
2019-05-14T04:29:01.649Z,8.40
2019-05-14T04:31:32.914Z,8.40
2019-05-14T04:34:03.820Z,8.40
2019-05-14T04:36:33.207Z,8.30
2019-05-14T04:39:02.542Z,8.30
2019-05-14T04:41:31.705Z,8.30
2019-05-14T04:44:00.934Z,8.30
2019-05-14T04:46:30.603Z,8.40
2019-05-14T04:48:59.931Z,8.40
2019-05-14T04:51:32.340Z,8.40
2019-05-14T04:54:04.402Z,8.40
2019-05-14T05:04:59.659Z,8.40
2019-05-14T05:07:30.089Z,8.40
2019-05-14T05:09:59.623Z,8.50
2019-05-14T05:12:29.770Z,8.50
2019-05-14T05:14:59.641Z,8.50
2019-05-14T05:17:42.524Z,8.50
2019-05-14T05:20:00.321Z,8.50
2019-05-14T05:22:39.378Z,8.50
2019-05-14T05:25:09.738Z,8.60
2019-05-14T05:27:42.220Z,8.60
2019-05-14T05:30:14.597Z,8.70
2019-05-14T05:32:43.819Z,8.70
2019-05-14T05:35:13.373Z,8.80
2019-05-14T05:37:42.680Z,8.90
2019-05-14T05:40:12.184Z,9.00
2019-05-14T05:42:41.398Z,9.10
2019-05-14T05:45:11.002Z,9.10
2019-05-14T05:47:54.073Z,9.20
2019-05-14T05:50:11.313Z,9.30
2019-05-14T05:52:40.496Z,9.30
2019-05-14T05:55:09.905Z,9.40
2019-05-14T05:57:41.138Z,9.50
2019-05-14T06:00:12.177Z,9.50
2019-05-14T06:02:41.522Z,9.60
2019-05-14T06:05:10.793Z,9.70
2019-05-14T06:07:40.191Z,9.80
2019-05-14T06:10:09.647Z,9.80
2019-05-14T06:12:39.237Z,9.90
2019-05-14T06:15:10.008Z,10.00
2019-05-14T06:18:11.675Z,10.10
2019-05-14T06:20:29.361Z,10.20
2019-05-14T06:22:58.942Z,10.30
2019-05-14T06:25:31.132Z,10.40
2019-05-14T06:27:59.759Z,10.50
2019-05-14T06:30:34.875Z,10.60
2019-05-14T06:33:04.279Z,10.70
2019-05-14T06:35:33.653Z,10.80
2019-05-14T06:38:03.007Z,10.80
2019-05-14T06:40:35.496Z,10.80
2019-05-14T06:43:04.940Z,10.90
2019-05-14T06:45:34.157Z,10.90
2019-05-14T06:48:03.635Z,10.80
2019-05-14T06:50:33.074Z,10.90
2019-05-14T06:53:02.370Z,11.00
2019-05-14T06:55:31.700Z,11.10
2019-05-14T06:58:01.842Z,11.10
2019-05-14T07:00:31.116Z,11.00
2019-05-14T07:03:03.485Z,11.10
2019-05-14T07:05:32.853Z,11.10
2019-05-14T07:08:02.165Z,11.20
2019-05-14T07:10:31.446Z,11.20
2019-05-14T07:13:00.741Z,11.20
2019-05-14T07:15:30.204Z,11.30
2019-05-14T07:17:59.607Z,11.30
2019-05-14T07:20:28.926Z,11.40
2019-05-14T07:22:58.623Z,11.40
2019-05-14T07:25:28.714Z,11.50
2019-05-14T07:27:58.354Z,11.60
2019-05-14T07:30:28.949Z,11.60
2019-05-14T07:32:58.837Z,11.70
2019-05-14T07:35:28.848Z,11.70
2019-05-14T07:37:59.093Z,11.80
2019-05-14T07:40:29.030Z,11.80
2019-05-14T07:42:58.480Z,11.70
2019-05-14T07:45:28.758Z,11.60
2019-05-14T07:47:58.379Z,11.70
2019-05-14T07:50:28.977Z,11.80
2019-05-14T07:52:58.822Z,11.80
2019-05-14T07:55:28.861Z,11.90
2019-05-14T07:57:58.753Z,12.00
2019-05-14T08:00:28.561Z,12.00
2019-05-14T08:02:58.217Z,12.10
2019-05-14T08:05:28.806Z,12.20
2019-05-14T08:07:58.585Z,12.30
2019-05-14T08:10:28.980Z,12.40
2019-05-14T08:12:58.874Z,12.50
2019-05-14T08:15:28.346Z,12.50
2019-05-14T08:17:58.585Z,12.50
2019-05-14T08:20:28.636Z,12.60
2019-05-14T08:22:58.313Z,12.60
2019-05-14T08:25:28.272Z,12.60
2019-05-14T08:27:58.692Z,12.60
2019-05-14T08:30:28.390Z,12.60
2019-05-14T08:32:58.275Z,12.50
2019-05-14T08:35:29.032Z,12.60
2019-05-14T08:38:08.159Z,12.60
2019-05-14T08:40:29.586Z,12.70
2019-05-14T08:42:58.826Z,12.70
2019-05-14T08:45:28.572Z,12.70
2019-05-14T08:47:58.644Z,12.80
2019-05-14T08:50:29.234Z,12.90
2019-05-14T08:52:58.503Z,12.90
2019-05-14T08:55:29.645Z,12.80
2019-05-14T08:57:59.387Z,12.90
2019-05-14T09:00:31.894Z,13.00
2019-05-14T09:03:03.146Z,13.00
2019-05-14T09:05:32.203Z,13.10
2019-05-14T09:08:01.591Z,13.20
2019-05-14T09:10:30.800Z,13.30
2019-05-14T09:13:02.653Z,13.40
2019-05-14T09:15:31.096Z,13.40
2019-05-14T09:18:03.415Z,13.30
2019-05-14T09:20:31.509Z,13.40
2019-05-14T09:23:00.895Z,13.40
2019-05-14T09:25:30.139Z,13.30
2019-05-14T09:27:59.439Z,13.40
2019-05-14T09:30:29.048Z,13.50
2019-05-14T09:32:59.571Z,13.60
2019-05-14T09:35:29.825Z,13.70
2019-05-14T09:37:59.354Z,13.80
2019-05-14T09:40:29.142Z,13.80
2019-05-14T09:43:01.054Z,13.70
2019-05-14T09:45:30.374Z,13.70
2019-05-14T09:47:59.664Z,13.80
2019-05-14T09:50:29.228Z,13.80
2019-05-14T09:52:59.284Z,13.90
2019-05-14T09:55:29.203Z,14.00
2019-05-14T09:57:58.735Z,14.00
2019-05-14T10:00:28.186Z,14.20
2019-05-14T10:02:59.673Z,14.30
2019-05-14T10:05:28.474Z,14.20
2019-05-14T10:07:59.401Z,14.20
2019-05-14T10:10:30.494Z,14.30
2019-05-14T10:13:01.591Z,14.40
2019-05-14T10:15:31.139Z,14.50
2019-05-14T10:18:00.672Z,14.60
2019-05-14T10:20:38.745Z,14.60
2019-05-14T10:23:01.155Z,14.60
2019-05-14T10:25:30.538Z,14.70
2019-05-14T10:27:59.946Z,14.80
2019-05-14T10:30:29.365Z,14.70
2019-05-14T10:33:08.154Z,14.80
2019-05-14T10:35:29.702Z,14.90
2019-05-14T10:37:59.879Z,15.00
2019-05-14T10:40:29.444Z,15.10
2019-05-14T10:42:58.689Z,15.20
2019-05-14T10:45:28.931Z,15.30
2019-05-14T10:47:58.704Z,15.30
2019-05-14T10:50:28.958Z,15.30
2019-05-14T10:52:59.603Z,15.20
2019-05-14T10:55:30.058Z,15.20
2019-05-14T10:57:59.459Z,15.30
2019-05-14T11:00:28.839Z,15.30
2019-05-14T11:02:58.124Z,15.30
2019-05-14T11:05:28.143Z,15.20
2019-05-14T11:07:58.738Z,15.20
2019-05-14T11:10:29.798Z,15.30
2019-05-14T11:12:59.522Z,15.20
2019-05-14T11:15:29.006Z,15.30
2019-05-14T11:17:58.334Z,15.40
2019-05-14T11:20:31.163Z,15.40
2019-05-14T11:22:58.749Z,15.50
2019-05-14T11:25:28.753Z,15.70
2019-05-14T11:27:58.606Z,15.90
2019-05-14T11:30:28.813Z,15.90
2019-05-14T11:32:58.592Z,16.10
2019-05-14T11:35:28.771Z,16.20
2019-05-14T11:37:59.056Z,16.40
2019-05-14T11:40:29.366Z,16.50
2019-05-14T11:42:59.359Z,16.60
2019-05-14T11:45:28.919Z,16.70
2019-05-14T11:47:58.519Z,16.70
2019-05-14T11:50:28.655Z,16.70
2019-05-14T11:52:58.604Z,16.70
2019-05-14T11:55:27.974Z,16.70
2019-05-14T11:57:58.284Z,16.70
2019-05-14T12:00:29.474Z,16.60
2019-05-14T12:02:58.959Z,16.60
2019-05-14T12:05:30.482Z,16.80
2019-05-14T12:07:59.504Z,16.90
2019-05-14T12:10:29.267Z,16.90
2019-05-14T12:12:58.760Z,16.90
2019-05-14T12:15:27.995Z,17.00
2019-05-14T12:17:59.584Z,17.00
2019-05-14T12:20:29.630Z,17.10
2019-05-14T12:22:59.373Z,17.20
2019-05-14T12:25:29.529Z,17.30
2019-05-14T12:27:59.117Z,17.40
2019-05-14T12:30:28.870Z,17.50
2019-05-14T12:32:59.005Z,17.50
2019-05-14T12:35:29.277Z,17.50
2019-05-14T12:37:58.738Z,17.50
2019-05-14T12:40:28.928Z,17.60
2019-05-14T12:43:01.418Z,17.70
2019-05-14T12:45:30.750Z,17.70
2019-05-14T12:48:00.108Z,17.80
2019-05-14T12:50:29.375Z,17.80
2019-05-14T12:52:58.924Z,17.80
2019-05-14T12:55:28.683Z,17.80
2019-05-14T12:57:59.774Z,17.80
2019-05-14T13:00:29.057Z,17.80
2019-05-14T13:02:59.332Z,17.90
2019-05-14T13:05:29.474Z,17.90
2019-05-14T13:07:58.877Z,17.90
2019-05-14T13:10:29.460Z,18.00
2019-05-14T13:12:59.229Z,18.00
2019-05-14T13:15:32.100Z,18.10
2019-05-14T13:18:01.376Z,18.20
2019-05-14T13:20:30.724Z,18.30
2019-05-14T13:23:00.101Z,18.30
2019-05-14T13:25:30.421Z,18.40
2019-05-14T13:27:59.881Z,18.50
2019-05-14T13:30:29.857Z,18.50
2019-05-14T13:32:59.346Z,18.60
2019-05-14T13:35:29.256Z,18.70
2019-05-14T13:37:58.819Z,18.70
2019-05-14T13:40:28.416Z,18.80
2019-05-14T13:42:57.777Z,18.90
2019-05-14T13:45:29.674Z,19.00
2019-05-14T13:47:59.122Z,19.00
2019-05-14T13:50:29.444Z,19.10
2019-05-14T13:53:07.611Z,19.20
2019-05-14T13:55:30.641Z,19.30
2019-05-14T13:58:00.410Z,19.40
2019-05-14T14:00:30.248Z,19.40
2019-05-14T14:02:59.569Z,19.50
2019-05-14T14:05:31.649Z,19.60
2019-05-14T14:08:00.901Z,19.80
2019-05-14T14:10:35.435Z,19.90
2019-05-14T14:13:01.351Z,20.10
2019-05-14T14:15:30.681Z,20.20
2019-05-14T14:18:00.414Z,20.40
2019-05-14T14:20:29.772Z,20.50
2019-05-14T14:23:09.174Z,20.60
2019-05-14T14:25:29.979Z,20.80
2019-05-14T14:28:00.410Z,21.00
2019-05-14T14:30:29.990Z,21.10
2019-05-14T14:32:59.212Z,21.30
2019-05-14T14:35:31.365Z,21.50
2019-05-14T14:38:00.943Z,21.70
2019-05-14T14:40:30.424Z,21.90
2019-05-14T14:42:59.908Z,22.10
2019-05-14T14:45:29.453Z,22.30
2019-05-14T14:48:01.345Z,22.50
2019-05-14T14:50:32.699Z,22.60
2019-05-14T14:53:02.310Z,22.80
2019-05-14T14:55:31.567Z,23.00
2019-05-14T14:58:00.815Z,23.20
2019-05-14T15:00:30.235Z,23.50
2019-05-14T15:02:59.899Z,23.60
2019-05-14T15:05:29.810Z,23.70
2019-05-14T15:08:00.175Z,23.70
2019-05-14T15:10:29.723Z,23.70
2019-05-14T15:12:59.123Z,23.50
2019-05-14T15:15:31.951Z,23.40
2019-05-14T15:17:59.464Z,23.30
2019-05-14T15:20:29.060Z,23.30
2019-05-14T15:23:00.005Z,23.30
2019-05-14T15:25:29.617Z,23.20
2019-05-14T15:27:58.960Z,23.10
2019-05-14T15:30:28.828Z,23.10
2019-05-14T15:32:59.838Z,23.10
2019-05-14T15:35:29.199Z,23.10
2019-05-14T15:37:58.990Z,23.10
2019-05-14T15:40:29.089Z,23.10
2019-05-14T15:43:01.771Z,23.10
2019-05-14T15:45:29.502Z,23.20
2019-05-14T15:48:03.506Z,23.30
2019-05-14T15:50:32.954Z,23.30
2019-05-14T15:53:02.367Z,23.30
2019-05-14T15:55:31.694Z,23.30
2019-05-14T15:58:01.004Z,23.20
2019-05-14T16:00:30.326Z,23.10
2019-05-14T16:03:00.387Z,23.00
2019-05-14T16:05:29.838Z,23.00
2019-05-14T16:07:59.498Z,22.90
2019-05-14T16:10:31.180Z,22.90
2019-05-14T16:12:59.771Z,23.00
2019-05-14T16:15:29.059Z,23.10
2019-05-14T16:18:07.261Z,23.10
2019-05-14T16:20:30.990Z,23.20
2019-05-14T16:23:00.243Z,23.10
2019-05-14T16:25:29.461Z,23.20
2019-05-14T16:27:59.554Z,23.20
2019-05-14T16:30:29.303Z,23.20
2019-05-14T16:32:59.770Z,23.20
2019-05-14T16:35:29.457Z,23.20
2019-05-14T16:37:59.190Z,23.20
2019-05-14T16:40:28.899Z,23.20
2019-05-14T16:42:59.158Z,23.20
2019-05-14T16:45:29.039Z,23.10
2019-05-14T16:47:59.301Z,23.10
2019-05-14T16:50:28.825Z,23.00
2019-05-14T16:52:58.967Z,23.00
2019-05-14T16:55:30.675Z,22.90
2019-05-14T16:58:02.190Z,22.70
2019-05-14T17:00:34.574Z,22.70
2019-05-14T17:03:02.536Z,22.60
2019-05-14T17:05:31.960Z,22.50
2019-05-14T17:08:01.242Z,22.40
2019-05-14T17:10:30.543Z,22.30
2019-05-14T17:13:01.695Z,22.20
2019-05-14T17:15:30.835Z,22.20
2019-05-14T17:18:00.149Z,22.10
2019-05-14T17:20:29.543Z,22.10
2019-05-14T17:22:59.463Z,22.10
2019-05-14T17:25:30.454Z,22.10
2019-05-14T17:28:00.848Z,22.00
2019-05-14T17:30:30.147Z,22.00
2019-05-14T17:32:59.538Z,22.00
2019-05-14T17:35:29.812Z,22.00
2019-05-14T17:37:59.431Z,21.90
2019-05-14T17:40:28.758Z,21.90
2019-05-14T17:42:59.233Z,21.90
2019-05-14T17:45:28.737Z,21.90
2019-05-14T17:48:00.067Z,21.90
2019-05-14T17:50:29.422Z,21.80
2019-05-14T17:53:00.222Z,21.70
2019-05-14T17:55:43.702Z,21.60
2019-05-14T17:58:00.767Z,21.60
2019-05-14T18:00:30.141Z,21.50
2019-05-14T18:02:59.471Z,21.30
2019-05-14T18:05:29.201Z,21.20
2019-05-14T18:07:59.333Z,21.10
2019-05-14T18:10:29.037Z,21.00
2019-05-14T18:12:59.764Z,20.80
2019-05-14T18:15:29.419Z,20.70
2019-05-14T18:17:59.063Z,20.70
2019-05-14T18:20:28.863Z,20.50
2019-05-14T18:22:58.496Z,20.40
2019-05-14T18:25:29.153Z,20.30
2019-05-14T18:27:58.479Z,20.20
2019-05-14T18:30:28.890Z,20.10
2019-05-14T18:32:58.516Z,20.10
2019-05-14T18:35:29.490Z,19.90
2019-05-14T18:37:58.983Z,19.70
2019-05-14T18:40:28.271Z,19.60
2019-05-14T18:42:59.030Z,19.40
2019-05-14T18:45:29.432Z,19.20
2019-05-14T18:47:59.247Z,19.10
2019-05-14T18:50:29.041Z,18.90
2019-05-14T18:52:59.783Z,18.70
2019-05-14T18:55:29.576Z,18.60
2019-05-14T18:57:59.457Z,18.40
2019-05-14T19:00:29.667Z,18.30
2019-05-14T19:02:59.036Z,18.20
2019-05-14T19:05:29.486Z,18.00
2019-05-14T19:07:59.436Z,17.90
2019-05-14T19:10:29.517Z,17.80
2019-05-14T19:12:59.373Z,17.70
2019-05-14T19:15:28.666Z,17.60
2019-05-14T19:18:01.171Z,17.50
2019-05-14T19:20:29.198Z,17.50
2019-05-14T19:23:00.178Z,17.40
2019-05-14T19:25:29.789Z,17.30
2019-05-14T19:27:59.042Z,17.20
2019-05-14T19:30:28.727Z,17.10
2019-05-14T19:32:58.234Z,17.00
2019-05-14T19:35:28.701Z,17.00
2019-05-14T19:37:59.471Z,16.90
2019-05-14T19:40:29.082Z,16.80
2019-05-14T19:42:58.406Z,16.80
2019-05-14T19:45:28.145Z,16.70
2019-05-14T19:47:58.408Z,16.60
2019-05-14T19:50:29.464Z,16.50
2019-05-14T19:52:59.082Z,16.50
2019-05-14T19:55:28.974Z,16.40
2019-05-14T19:57:58.471Z,16.30
2019-05-14T20:00:28.777Z,16.20
2019-05-14T20:02:58.425Z,16.10
2019-05-14T20:05:28.621Z,16.00
2019-05-14T20:07:58.189Z,15.90
2019-05-14T20:10:29.155Z,15.80
2019-05-14T20:12:59.272Z,15.70
2019-05-14T20:15:28.630Z,15.60
2019-05-14T20:17:58.262Z,15.60
2019-05-14T20:20:28.777Z,15.50
2019-05-14T20:22:59.052Z,15.50
2019-05-14T20:25:28.564Z,15.50
2019-05-14T20:27:58.772Z,15.40
2019-05-14T20:30:29.544Z,15.30
2019-05-14T20:32:59.394Z,15.30
2019-05-14T20:35:34.492Z,15.20
2019-05-14T20:38:00.462Z,15.20
2019-05-14T20:40:29.769Z,15.10
2019-05-14T20:42:59.222Z,15.10
2019-05-14T20:45:29.064Z,15.10
2019-05-14T20:47:58.706Z,15.00
2019-05-14T20:50:29.069Z,15.00
2019-05-14T20:52:59.144Z,14.90
2019-05-14T20:55:28.891Z,14.90
2019-05-14T20:57:58.805Z,14.80
2019-05-14T21:00:29.401Z,14.80
2019-05-14T21:02:59.569Z,14.70
2019-05-14T21:05:29.030Z,14.70
2019-05-14T21:07:59.019Z,14.60
2019-05-14T21:10:29.096Z,14.60
2019-05-14T21:12:58.739Z,14.50
2019-05-14T21:15:28.815Z,14.50
2019-05-14T21:17:59.652Z,14.40
2019-05-14T21:20:29.324Z,14.40
2019-05-14T21:22:58.743Z,14.40
2019-05-14T21:25:29.615Z,14.30
2019-05-14T21:27:59.216Z,14.30
2019-05-14T21:30:29.534Z,14.30
2019-05-14T21:33:00.373Z,14.20
2019-05-14T21:35:30.382Z,14.20
2019-05-14T21:38:00.502Z,14.20
2019-05-14T21:40:32.176Z,14.10
2019-05-14T21:43:00.816Z,14.10
2019-05-14T21:45:30.430Z,14.00
2019-05-14T21:47:59.708Z,14.00
2019-05-14T21:50:29.067Z,13.90
2019-05-14T21:52:59.664Z,13.90
2019-05-14T21:55:29.081Z,13.80
2019-05-14T21:57:58.396Z,13.70
2019-05-14T22:00:35.664Z,13.70
2019-05-14T22:03:05.040Z,13.70
2019-05-14T22:05:34.389Z,13.60
2019-05-14T22:08:03.821Z,13.60
2019-05-14T22:10:33.287Z,13.60
2019-05-14T22:13:02.572Z,13.60
2019-05-14T22:15:32.053Z,13.50
2019-05-14T22:18:13.923Z,13.50
2019-05-14T22:20:35.423Z,13.50
2019-05-14T22:23:04.851Z,13.40
2019-05-14T22:25:34.174Z,13.40
2019-05-14T22:28:22.885Z,13.40
2019-05-14T22:30:52.271Z,13.30
2019-05-14T22:33:21.594Z,13.30
2019-05-14T22:35:50.927Z,13.30
2019-05-14T22:38:20.467Z,13.20
2019-05-14T22:40:52.823Z,13.20
2019-05-14T22:43:22.124Z,13.20
2019-05-14T22:45:51.477Z,13.10
2019-05-14T22:48:20.797Z,13.10
2019-05-14T22:50:50.102Z,13.00
2019-05-14T22:53:19.434Z,13.00
2019-05-14T22:55:49.200Z,13.00
2019-05-14T22:58:25.447Z,12.90
2019-05-14T23:01:01.816Z,12.90
2019-05-14T23:03:21.162Z,12.80
2019-05-14T23:05:50.640Z,12.80
2019-05-14T23:08:20.108Z,12.70
2019-05-14T23:10:49.447Z,12.80
2019-05-14T23:13:18.719Z,12.70
2019-05-14T23:15:48.219Z,12.70
2019-05-14T23:18:18.145Z,12.70
2019-05-14T23:20:49.196Z,12.70
2019-05-14T23:23:18.723Z,12.60
2019-05-14T23:25:48.124Z,12.60
2019-05-14T23:28:19.247Z,12.60
2019-05-14T23:30:48.556Z,12.50
2019-05-14T23:33:19.114Z,12.50
2019-05-14T23:35:48.694Z,12.50
2019-05-14T23:38:19.070Z,12.50
2019-05-14T23:40:51.653Z,12.50
2019-05-14T23:43:20.957Z,12.40
2019-05-14T23:45:50.283Z,12.40
2019-05-14T23:48:19.581Z,12.40
2019-05-14T23:50:48.939Z,12.40
2019-05-14T23:53:18.529Z,12.40
2019-05-14T23:55:48.219Z,12.30
2019-05-14T23:58:20.529Z,12.30
